createdAt,value
2022-11-05T00:02:27.661Z,100.00
2022-11-05T00:05:12.737Z,100.00
2022-11-05T00:08:06.304Z,100.00
2022-11-05T00:10:37.013Z,100.00
2022-11-05T00:13:24.168Z,100.00
2022-11-05T00:16:12.750Z,100.00
2022-11-05T00:18:39.302Z,100.00
2022-11-05T00:21:26.267Z,100.00
2022-11-05T00:24:11.150Z,100.00
2022-11-05T00:26:37.627Z,100.00
2022-11-05T00:29:04.133Z,100.00
2022-11-05T00:31:32.321Z,100.00
2022-11-05T00:33:58.785Z,100.00
2022-11-05T00:36:25.266Z,100.00
2022-11-05T00:38:51.753Z,100.00
2022-11-05T00:41:18.468Z,100.00
2022-11-05T00:44:03.276Z,100.00
2022-11-05T00:46:31.712Z,100.00
2022-11-05T00:49:16.516Z,100.00
2022-11-05T00:51:42.988Z,100.00
2022-11-05T00:54:09.438Z,100.00
2022-11-05T00:56:36.137Z,100.00
2022-11-05T00:59:02.575Z,100.00
2022-11-05T01:01:29.118Z,100.00
2022-11-05T01:03:55.740Z,100.00
2022-11-05T01:06:22.225Z,100.00
2022-11-05T01:08:48.736Z,100.00
2022-11-05T01:11:37.244Z,100.00
2022-11-05T01:14:07.701Z,100.00
2022-11-05T01:16:34.847Z,100.00
2022-11-05T01:19:02.495Z,100.00
2022-11-05T01:21:28.955Z,100.00
2022-11-05T01:23:55.447Z,100.00
2022-11-05T01:26:21.943Z,100.00
2022-11-05T01:28:52.761Z,100.00
2022-11-05T01:31:19.565Z,100.00
2022-11-05T01:33:46.060Z,100.00
2022-11-05T01:36:12.978Z,100.00
2022-11-05T01:38:39.515Z,100.00
2022-11-05T01:41:06.575Z,100.00
2022-11-05T01:43:52.278Z,100.00
2022-11-05T01:46:29.242Z,100.00
2022-11-05T01:49:03.295Z,100.00
2022-11-05T01:51:30.961Z,100.00
2022-11-05T01:54:02.863Z,100.00
2022-11-05T01:56:40.462Z,100.00
2022-11-05T01:59:13.412Z,100.00
2022-11-05T02:06:57.148Z,100.00
2022-11-05T02:09:30.240Z,100.00
2022-11-05T02:11:57.434Z,100.00
2022-11-05T02:14:24.097Z,100.00
2022-11-05T02:17:05.081Z,100.00
2022-11-05T02:19:39.965Z,100.00
2022-11-05T02:22:56.734Z,100.00
2022-11-05T02:25:44.742Z,100.00
2022-11-05T02:28:53.232Z,100.00
2022-11-05T02:31:47.220Z,100.00
2022-11-05T02:34:35.568Z,100.00
2022-11-05T02:37:09.941Z,100.00
2022-11-05T02:39:44.530Z,100.00
2022-11-05T02:42:34.798Z,100.00
2022-11-05T02:45:25.489Z,100.00
2022-11-05T02:48:17.151Z,100.00
2022-11-05T02:50:48.727Z,100.00
2022-11-05T02:53:24.926Z,100.00
2022-11-05T02:56:04.327Z,100.00
2022-11-05T02:58:34.100Z,100.00
2022-11-05T03:01:02.073Z,100.00
2022-11-05T03:03:39.473Z,100.00
2022-11-05T03:06:10.713Z,100.00
2022-11-05T03:08:58.768Z,100.00
2022-11-05T03:11:29.136Z,100.00
2022-11-05T03:14:36.418Z,100.00
2022-11-05T03:17:45.034Z,100.00
2022-11-05T03:20:25.977Z,100.00
2022-11-05T03:23:39.656Z,100.00
2022-11-05T03:26:10.472Z,100.00
2022-11-05T03:28:43.147Z,100.00
2022-11-05T03:31:13.602Z,100.00
2022-11-05T03:33:43.421Z,100.00
2022-11-05T03:36:17.334Z,100.00
2022-11-05T03:38:49.021Z,100.00
2022-11-05T03:41:16.244Z,100.00
2022-11-05T03:43:47.005Z,100.00
2022-11-05T03:46:29.758Z,100.00
2022-11-05T03:48:59.227Z,100.00
2022-11-05T03:51:29.582Z,100.00
2022-11-05T03:53:59.544Z,100.00
2022-11-05T03:56:28.938Z,100.00
2022-11-05T03:58:59.051Z,100.00
2022-11-05T04:01:28.889Z,100.00
2022-11-05T04:03:55.542Z,100.00
2022-11-05T04:06:40.478Z,100.00
2022-11-05T04:09:25.779Z,100.00
2022-11-05T04:12:10.497Z,100.00
2022-11-05T04:14:37.084Z,100.00
2022-11-05T04:17:12.268Z,100.00
2022-11-05T04:19:59.198Z,100.00
2022-11-05T04:22:45.702Z,100.00
2022-11-05T04:25:13.433Z,100.00
2022-11-05T04:27:40.312Z,100.00
2022-11-05T04:30:19.559Z,100.00
2022-11-05T04:33:11.036Z,100.00
2022-11-05T04:35:41.022Z,100.00
2022-11-05T04:38:12.628Z,100.00
2022-11-05T04:40:39.111Z,100.00
2022-11-05T04:43:14.662Z,100.00
2022-11-05T04:45:42.225Z,100.00
2022-11-05T04:48:12.614Z,100.00
2022-11-05T04:50:39.419Z,100.00
2022-11-05T04:53:06.026Z,100.00
2022-11-05T04:55:32.510Z,100.00
2022-11-05T04:57:59.045Z,100.00
2022-11-05T05:00:25.723Z,100.00
2022-11-05T05:02:52.306Z,100.00
2022-11-05T05:05:18.870Z,100.00
2022-11-05T05:07:45.699Z,100.00
2022-11-05T05:10:12.460Z,100.00
2022-11-05T05:12:39.153Z,100.00
2022-11-05T05:15:06.122Z,100.00
2022-11-05T05:17:32.791Z,100.00
2022-11-05T05:20:17.715Z,100.00
2022-11-05T05:22:44.224Z,100.00
2022-11-05T05:25:10.799Z,100.00
2022-11-05T05:27:37.272Z,100.00
2022-11-05T05:30:04.240Z,100.00
2022-11-05T05:32:30.729Z,100.00
2022-11-05T05:34:57.244Z,100.00
2022-11-05T05:37:23.882Z,100.00
2022-11-05T05:39:50.470Z,100.00
2022-11-05T05:42:22.861Z,100.00
2022-11-05T05:44:49.337Z,100.00
2022-11-05T05:47:15.904Z,100.00
2022-11-05T05:49:42.424Z,100.00
2022-11-05T05:52:08.903Z,100.00
2022-11-05T05:54:39.835Z,100.00
2022-11-05T05:57:12.466Z,100.00
2022-11-05T05:59:38.989Z,100.00
2022-11-05T06:02:05.563Z,100.00
2022-11-05T06:04:32.098Z,100.00
2022-11-05T06:06:58.587Z,100.00
2022-11-05T06:09:25.305Z,100.00
2022-11-05T06:11:53.570Z,100.00
2022-11-05T06:14:20.077Z,100.00
2022-11-05T06:16:46.609Z,100.00
2022-11-05T06:19:13.142Z,100.00
2022-11-05T06:21:39.632Z,100.00
2022-11-05T06:24:06.683Z,100.00
2022-11-05T06:26:33.238Z,100.00
2022-11-05T06:28:59.719Z,100.00
2022-11-05T06:31:26.222Z,100.00
2022-11-05T06:33:52.991Z,100.00
2022-11-05T06:36:20.277Z,100.00
2022-11-05T06:38:47.087Z,100.00
2022-11-05T06:41:13.758Z,100.00
2022-11-05T06:43:40.335Z,100.00
2022-11-05T06:46:07.625Z,100.00
2022-11-05T06:48:34.680Z,100.00
2022-11-05T06:51:01.326Z,100.00
2022-11-05T06:53:28.264Z,100.00
2022-11-05T06:55:54.932Z,100.00
2022-11-05T06:58:23.799Z,100.00
2022-11-05T07:00:50.349Z,100.00
2022-11-05T07:03:16.840Z,100.00
2022-11-05T07:05:47.885Z,100.00
2022-11-05T07:08:15.133Z,100.00
2022-11-05T07:10:41.839Z,100.00
2022-11-05T07:13:10.749Z,100.00
2022-11-05T07:15:37.988Z,100.00
2022-11-05T07:18:07.355Z,100.00
2022-11-05T07:23:14.242Z,100.00
2022-11-05T07:25:42.155Z,100.00
2022-11-05T07:28:11.155Z,100.00
2022-11-05T07:30:38.094Z,100.00
2022-11-05T07:33:04.906Z,100.00
2022-11-05T07:35:31.663Z,100.00
2022-11-05T07:37:58.320Z,100.00
2022-11-05T07:40:28.087Z,100.00
2022-11-05T07:42:57.403Z,100.00
2022-11-05T07:48:03.203Z,100.00
2022-11-05T07:50:35.224Z,100.00
2022-11-05T07:53:02.502Z,100.00
2022-11-05T07:55:29.528Z,100.00
2022-11-05T07:57:56.206Z,100.00
2022-11-05T08:00:24.917Z,100.00
2022-11-05T08:03:09.359Z,100.00
2022-11-05T08:05:43.354Z,100.00
2022-11-05T08:08:11.286Z,100.00
2022-11-05T08:10:38.713Z,100.00
2022-11-05T08:13:06.275Z,100.00
2022-11-05T08:15:34.043Z,100.00
2022-11-05T08:18:03.375Z,100.00
2022-11-05T08:20:30.518Z,100.00
2022-11-05T08:22:59.434Z,100.00
2022-11-05T08:25:26.800Z,100.00
2022-11-05T08:27:57.332Z,100.00
2022-11-05T08:30:24.029Z,100.00
2022-11-05T08:32:51.009Z,100.00
2022-11-05T08:35:17.615Z,100.00
2022-11-05T08:37:44.086Z,100.00
2022-11-05T08:40:10.971Z,100.00
2022-11-05T08:42:37.451Z,100.00
2022-11-05T08:45:04.405Z,100.00
2022-11-05T08:47:31.201Z,100.00
2022-11-05T08:49:57.701Z,100.00
2022-11-05T08:52:24.199Z,100.00
2022-11-05T08:54:50.648Z,100.00
2022-11-05T08:57:17.090Z,100.00
2022-11-05T08:59:44.062Z,100.00
2022-11-05T09:02:13.499Z,100.00
2022-11-05T09:04:40.056Z,100.00
2022-11-05T09:07:06.641Z,100.00
2022-11-05T09:09:33.168Z,100.00
2022-11-05T09:12:12.321Z,100.00
2022-11-05T09:14:39.495Z,100.00
2022-11-05T09:17:17.756Z,100.00
2022-11-05T09:19:44.458Z,100.00
2022-11-05T09:22:22.647Z,100.00
2022-11-05T09:24:49.143Z,100.00
2022-11-05T09:27:15.717Z,100.00
2022-11-05T09:29:42.444Z,100.00
2022-11-05T09:32:09.427Z,100.00
2022-11-05T09:34:39.778Z,100.00
2022-11-05T09:37:06.294Z,100.00
2022-11-05T09:39:32.811Z,100.00
2022-11-05T09:42:06.916Z,100.00
2022-11-05T09:44:51.781Z,100.00
2022-11-05T09:47:27.733Z,100.00
2022-11-05T09:49:56.698Z,100.00
2022-11-05T09:52:29.399Z,100.00
2022-11-05T09:54:57.158Z,100.00
2022-11-05T09:57:28.531Z,100.00
2022-11-05T10:00:02.061Z,100.00
2022-11-05T10:02:35.957Z,100.00
2022-11-05T10:05:10.029Z,100.00
2022-11-05T10:07:50.777Z,100.00
2022-11-05T10:10:45.243Z,100.00
2022-11-05T10:13:29.896Z,100.00
2022-11-05T10:16:25.661Z,100.00
2022-11-05T10:19:10.140Z,100.00
2022-11-05T10:22:04.811Z,100.00
2022-11-05T10:24:27.286Z,100.00
2022-11-05T10:26:55.182Z,100.00
2022-11-05T10:29:33.072Z,100.00
2022-11-05T10:32:07.268Z,100.00
2022-11-05T10:34:37.142Z,100.00
2022-11-05T10:37:04.611Z,100.00
2022-11-05T10:39:33.997Z,100.00
2022-11-05T10:42:09.326Z,100.00
2022-11-05T10:44:48.926Z,100.00
2022-11-05T10:47:45.001Z,100.00
2022-11-05T10:50:21.329Z,100.00
2022-11-05T10:53:28.884Z,100.00
2022-11-05T10:55:58.560Z,100.00
2022-11-05T10:58:35.300Z,100.00
2022-11-05T11:01:06.294Z,100.00
2022-11-05T11:03:47.878Z,100.00
2022-11-05T11:06:37.863Z,100.00
2022-11-05T11:09:08.530Z,100.00
2022-11-05T11:11:40.669Z,100.00
2022-11-05T11:14:09.967Z,100.00
2022-11-05T11:16:39.318Z,100.00
2022-11-05T11:19:27.514Z,100.00
2022-11-05T11:22:13.845Z,100.00
2022-11-05T11:24:45.169Z,99.71
2022-11-05T11:27:25.693Z,97.71
2022-11-05T11:30:01.214Z,96.85
2022-11-05T11:32:37.972Z,97.37
2022-11-05T11:35:06.862Z,97.70
2022-11-05T11:37:41.799Z,98.74
2022-11-05T11:40:21.995Z,98.25
2022-11-05T11:42:55.758Z,98.58
2022-11-05T11:45:36.785Z,99.61
2022-11-05T11:48:14.492Z,98.72
2022-11-05T11:50:45.675Z,99.89
2022-11-05T11:53:21.500Z,98.20
2022-11-05T11:56:08.120Z,97.60
2022-11-05T11:58:50.777Z,97.32
2022-11-05T12:01:35.606Z,95.00
2022-11-05T12:04:39.729Z,93.48
2022-11-05T12:07:24.913Z,92.46
2022-11-05T12:10:04.449Z,93.45
2022-11-05T12:12:47.438Z,88.33
2022-11-05T12:15:38.297Z,90.37
2022-11-05T12:18:09.888Z,90.46
2022-11-05T12:21:08.384Z,88.58
2022-11-05T12:24:05.463Z,82.35
2022-11-05T12:26:50.117Z,78.90
2022-11-05T12:29:31.476Z,76.54
2022-11-05T12:32:20.234Z,78.41
2022-11-05T12:35:16.259Z,80.69
2022-11-05T12:37:53.505Z,79.07
2022-11-05T12:40:46.877Z,82.60
2022-11-05T12:43:24.168Z,82.69
2022-11-05T12:46:09.772Z,80.84
2022-11-05T12:48:53.751Z,85.38
2022-11-05T12:52:08.037Z,84.29
2022-11-05T12:54:55.831Z,83.21
2022-11-05T12:57:23.463Z,84.20
2022-11-05T13:00:19.652Z,79.93
2022-11-05T13:02:58.077Z,81.33
2022-11-05T13:05:35.057Z,75.31
2022-11-05T13:08:29.831Z,74.93
2022-11-05T13:11:01.317Z,77.33
2022-11-05T13:13:42.903Z,80.03
2022-11-05T13:16:33.700Z,78.22
2022-11-05T13:19:17.603Z,77.34
2022-11-05T13:21:51.776Z,78.19
2022-11-05T13:24:24.296Z,80.86
2022-11-05T13:27:15.900Z,81.12
2022-11-05T13:29:56.519Z,80.09
2022-11-05T13:32:35.802Z,79.96
2022-11-05T13:35:05.868Z,83.51
2022-11-05T13:37:58.160Z,83.97
2022-11-05T13:40:43.044Z,82.33
2022-11-05T13:43:21.771Z,82.44
2022-11-05T13:46:05.526Z,82.73
2022-11-05T13:49:12.715Z,81.79
2022-11-05T13:51:48.889Z,78.41
2022-11-05T13:54:55.334Z,79.01
2022-11-05T13:57:46.203Z,81.58
2022-11-05T14:00:18.491Z,83.20
2022-11-05T14:02:54.879Z,83.73
2022-11-05T14:05:29.522Z,85.21
2022-11-05T14:07:58.817Z,86.13
2022-11-05T14:10:34.108Z,86.09
2022-11-05T14:13:23.394Z,86.72
2022-11-05T14:16:08.988Z,84.63
2022-11-05T14:18:46.044Z,84.76
2022-11-05T14:21:49.780Z,85.46
2022-11-05T14:24:44.186Z,86.77
2022-11-05T14:27:13.374Z,86.09
2022-11-05T14:29:43.681Z,88.05
2022-11-05T14:32:43.148Z,87.75
2022-11-05T14:35:15.382Z,88.54
2022-11-05T14:37:52.578Z,88.68
2022-11-05T14:40:21.776Z,88.66
2022-11-05T14:42:54.123Z,88.12
2022-11-05T14:45:53.645Z,85.79
2022-11-05T14:48:40.981Z,87.78
2022-11-05T14:51:33.303Z,87.73
2022-11-05T14:54:04.171Z,87.55
2022-11-05T14:56:43.466Z,88.27
2022-11-05T14:59:25.268Z,89.17
2022-11-05T15:01:56.992Z,88.89
2022-11-05T15:04:28.953Z,89.64
2022-11-05T15:07:04.602Z,89.12
2022-11-05T15:09:36.931Z,90.38
2022-11-05T15:12:24.680Z,90.63
2022-11-05T15:15:20.406Z,90.46
2022-11-05T15:18:15.498Z,91.00
2022-11-05T15:20:46.009Z,90.64
2022-11-05T15:23:16.110Z,90.75
2022-11-05T15:25:54.949Z,90.87
2022-11-05T15:28:30.719Z,91.64
2022-11-05T15:30:59.441Z,89.63
2022-11-05T15:33:26.300Z,91.28
2022-11-05T15:35:52.841Z,92.65
2022-11-05T15:38:29.762Z,92.64
2022-11-05T15:41:01.351Z,92.99
2022-11-05T15:43:28.077Z,93.12
2022-11-05T15:46:23.006Z,93.69
2022-11-05T15:48:54.997Z,94.61
2022-11-05T15:51:23.293Z,95.17
2022-11-05T15:56:51.516Z,97.67
2022-11-05T15:59:20.430Z,98.55
2022-11-05T16:01:59.919Z,100.00
2022-11-05T16:04:30.507Z,100.00
2022-11-05T16:07:00.641Z,100.00
2022-11-05T16:09:34.193Z,100.00
2022-11-05T16:12:13.056Z,100.00
2022-11-05T16:14:41.950Z,100.00
2022-11-05T16:17:20.599Z,100.00
2022-11-05T16:19:48.643Z,100.00
2022-11-05T16:22:15.687Z,100.00
2022-11-05T16:24:42.774Z,100.00
2022-11-05T16:27:27.321Z,100.00
2022-11-05T16:29:57.343Z,100.00
2022-11-05T16:32:31.013Z,100.00
2022-11-05T16:35:01.622Z,100.00
2022-11-05T16:37:41.173Z,100.00
2022-11-05T16:40:18.165Z,100.00
2022-11-05T16:42:48.455Z,100.00
2022-11-05T16:45:17.039Z,100.00
2022-11-05T16:47:44.499Z,100.00
2022-11-05T16:50:16.641Z,100.00
2022-11-05T16:52:45.261Z,100.00
2022-11-05T16:55:12.882Z,100.00
2022-11-05T16:57:39.988Z,100.00
2022-11-05T17:00:11.039Z,100.00
2022-11-05T17:02:37.702Z,100.00
2022-11-05T17:05:04.472Z,100.00
2022-11-05T17:07:30.935Z,100.00
2022-11-05T17:09:57.945Z,100.00
2022-11-05T17:12:26.745Z,100.00
2022-11-05T17:14:53.252Z,100.00
2022-11-05T17:17:19.717Z,100.00
2022-11-05T17:19:46.863Z,100.00
2022-11-05T17:22:13.547Z,100.00
2022-11-05T17:24:40.025Z,100.00
2022-11-05T17:27:06.727Z,100.00
2022-11-05T17:29:35.489Z,100.00
2022-11-05T17:32:01.944Z,100.00
2022-11-05T17:34:28.691Z,100.00
2022-11-05T17:36:55.201Z,100.00
2022-11-05T17:39:23.177Z,100.00
2022-11-05T17:41:54.727Z,100.00
2022-11-05T17:44:21.507Z,100.00
2022-11-05T17:46:47.985Z,100.00
2022-11-05T17:49:14.430Z,100.00
2022-11-05T17:51:40.908Z,100.00
2022-11-05T17:54:07.652Z,100.00
2022-11-05T17:56:40.288Z,100.00
2022-11-05T17:59:10.107Z,100.00
2022-11-05T18:01:41.444Z,100.00
2022-11-05T18:04:09.157Z,100.00
2022-11-05T18:06:39.909Z,100.00
2022-11-05T18:09:09.719Z,100.00
2022-11-05T18:11:37.108Z,100.00
2022-11-05T18:14:07.853Z,100.00
2022-11-05T18:16:35.234Z,100.00
2022-11-05T18:19:01.737Z,100.00
2022-11-05T18:21:28.247Z,100.00
2022-11-05T18:23:59.426Z,100.00
2022-11-05T18:26:25.896Z,100.00
2022-11-05T18:28:52.362Z,100.00
2022-11-05T18:31:25.885Z,100.00
2022-11-05T18:33:56.706Z,100.00
2022-11-05T18:36:26.551Z,100.00
2022-11-05T18:38:53.576Z,100.00
2022-11-05T18:41:20.888Z,100.00
2022-11-05T18:43:47.682Z,100.00
2022-11-05T18:46:35.764Z,100.00
2022-11-05T18:49:01.660Z,100.00
2022-11-05T18:51:28.262Z,100.00
2022-11-05T18:53:57.206Z,100.00
2022-11-05T18:56:24.201Z,100.00
2022-11-05T18:59:14.564Z,100.00
2022-11-05T19:01:42.522Z,100.00
2022-11-05T19:07:05.104Z,100.00
2022-11-05T19:09:37.856Z,100.00
2022-11-05T19:12:07.255Z,100.00
2022-11-05T19:14:34.947Z,100.00
2022-11-05T19:17:02.211Z,100.00
2022-11-05T19:19:28.908Z,100.00
2022-11-05T19:21:55.769Z,100.00
2022-11-05T19:24:25.725Z,100.00
2022-11-05T19:26:52.302Z,100.00
2022-11-05T19:29:18.815Z,100.00
2022-11-05T19:31:46.040Z,100.00
2022-11-05T19:34:14.823Z,100.00
2022-11-05T19:36:42.684Z,100.00
2022-11-05T19:39:12.768Z,100.00
2022-11-05T19:41:39.266Z,100.00
2022-11-05T19:44:06.111Z,100.00
2022-11-05T19:46:32.977Z,100.00
2022-11-05T19:49:00.980Z,100.00
2022-11-05T19:51:29.570Z,100.00
2022-11-05T19:53:56.381Z,100.00
2022-11-05T19:56:26.489Z,100.00
2022-11-05T19:58:53.915Z,100.00
2022-11-05T20:01:22.357Z,100.00
2022-11-05T20:03:49.603Z,100.00
2022-11-05T20:06:19.841Z,100.00
2022-11-05T20:09:19.827Z,100.00
2022-11-05T20:11:40.048Z,100.00
2022-11-05T20:16:57.869Z,100.00
2022-11-05T20:19:24.713Z,100.00
2022-11-05T20:21:51.876Z,100.00
2022-11-05T20:24:24.261Z,100.00
2022-11-05T20:26:52.762Z,100.00
2022-11-05T20:29:19.403Z,100.00
2022-11-05T20:31:45.945Z,100.00
2022-11-05T20:34:14.258Z,100.00
2022-11-05T20:36:45.122Z,100.00
2022-11-05T20:39:12.149Z,100.00
2022-11-05T20:41:38.800Z,100.00
2022-11-05T20:44:05.382Z,100.00
2022-11-05T20:46:32.965Z,100.00
2022-11-05T20:48:59.472Z,100.00
2022-11-05T20:51:25.913Z,100.00
2022-11-05T20:53:57.678Z,100.00
2022-11-05T20:56:27.114Z,100.00
2022-11-05T20:58:55.558Z,100.00
2022-11-05T21:01:22.108Z,100.00
2022-11-05T21:03:48.821Z,100.00
2022-11-05T21:06:15.795Z,100.00
2022-11-05T21:08:43.059Z,100.00
2022-11-05T21:11:11.945Z,100.00
2022-11-05T21:13:38.941Z,100.00
2022-11-05T21:16:07.502Z,100.00
2022-11-05T21:21:15.147Z,100.00
2022-11-05T21:23:42.034Z,100.00
2022-11-05T21:26:12.453Z,100.00
2022-11-05T21:28:40.619Z,100.00
2022-11-05T21:31:07.971Z,100.00
2022-11-05T21:33:34.958Z,100.00
2022-11-05T21:36:07.814Z,100.00
2022-11-05T21:38:34.324Z,100.00
2022-11-05T21:41:02.840Z,100.00
2022-11-05T21:43:55.115Z,100.00
2022-11-05T21:46:21.577Z,100.00
2022-11-05T21:48:50.424Z,100.00
2022-11-05T21:51:35.462Z,100.00
2022-11-05T21:54:24.270Z,100.00
2022-11-05T21:57:10.927Z,100.00
2022-11-05T21:59:51.783Z,100.00
2022-11-05T22:02:22.010Z,100.00
2022-11-05T22:04:52.025Z,100.00
2022-11-05T22:07:21.560Z,100.00
2022-11-05T22:09:48.577Z,100.00
2022-11-05T22:12:15.557Z,100.00
2022-11-05T22:14:42.362Z,100.00
2022-11-05T22:17:09.733Z,100.00
2022-11-05T22:19:36.662Z,100.00
2022-11-05T22:22:06.797Z,100.00
2022-11-05T22:24:34.848Z,100.00
2022-11-05T22:27:04.563Z,100.00
2022-11-05T22:29:31.115Z,100.00
2022-11-05T22:31:59.952Z,100.00
2022-11-05T22:34:26.959Z,100.00
2022-11-05T22:36:55.533Z,100.00
2022-11-05T22:39:22.219Z,100.00
2022-11-05T22:41:49.488Z,100.00
2022-11-05T22:44:21.908Z,100.00
2022-11-05T22:46:48.460Z,100.00
2022-11-05T22:49:15.002Z,100.00
2022-11-05T22:51:41.680Z,100.00
2022-11-05T22:54:14.134Z,100.00
2022-11-05T22:56:42.107Z,100.00
2022-11-05T22:59:12.941Z,100.00
2022-11-05T23:01:39.951Z,100.00
2022-11-05T23:04:06.604Z,100.00
2022-11-05T23:06:52.523Z,100.00
2022-11-05T23:09:41.212Z,100.00
2022-11-05T23:12:29.316Z,100.00
2022-11-05T23:14:57.682Z,100.00
2022-11-05T23:17:45.349Z,100.00
2022-11-05T23:20:33.448Z,100.00
2022-11-05T23:25:39.029Z,100.00
2022-11-05T23:28:10.000Z,100.00
2022-11-05T23:31:01.321Z,100.00
2022-11-05T23:33:36.262Z,100.00
2022-11-05T23:36:21.491Z,100.00
2022-11-05T23:38:48.181Z,100.00
2022-11-05T23:41:36.897Z,100.00
2022-11-05T23:44:22.144Z,100.00
2022-11-05T23:47:07.412Z,100.00
2022-11-05T23:49:33.953Z,100.00
2022-11-05T23:52:00.598Z,100.00
2022-11-05T23:54:27.307Z,100.00
2022-11-05T23:56:53.812Z,100.00
2022-11-05T23:59:20.565Z,100.00
